createdAt,value
2022-08-19T00:00:50.585Z,977.895
2022-08-19T00:02:51.052Z,977.892
2022-08-19T00:04:50.233Z,977.913
2022-08-19T00:06:50.737Z,977.914
2022-08-19T00:08:50.781Z,977.856
2022-08-19T00:10:50.771Z,977.769
2022-08-19T00:12:51.138Z,977.798
2022-08-19T00:14:50.380Z,977.750
2022-08-19T00:16:50.507Z,977.792
2022-08-19T00:18:50.534Z,977.748
2022-08-19T00:20:50.394Z,977.733
2022-08-19T00:22:50.518Z,977.731
2022-08-19T00:24:51.383Z,977.652
2022-08-19T00:26:50.609Z,977.652
2022-08-19T00:28:50.742Z,977.637
2022-08-19T00:30:50.069Z,977.634
2022-08-19T00:32:50.449Z,977.711
2022-08-19T00:34:50.071Z,977.769
2022-08-19T00:36:50.696Z,977.762
2022-08-19T00:38:50.517Z,977.727
2022-08-19T00:40:50.798Z,977.760
2022-08-19T00:42:49.953Z,977.812
2022-08-19T00:44:49.961Z,977.843
2022-08-19T00:46:58.830Z,977.868
2022-08-19T00:48:49.925Z,977.971
2022-08-19T00:50:52.632Z,977.964
2022-08-19T00:52:50.443Z,977.966
2022-08-19T00:54:53.087Z,977.964
2022-08-19T00:56:56.011Z,977.907
2022-08-19T00:58:50.091Z,977.924
2022-08-19T01:00:50.083Z,977.998
2022-08-19T01:02:50.036Z,977.958
2022-08-19T01:04:50.542Z,978.049
2022-08-19T01:06:49.876Z,978.054
2022-08-19T01:08:50.531Z,978.041
2022-08-19T01:10:50.534Z,978.019
2022-08-19T01:12:50.542Z,977.992
2022-08-19T01:14:50.344Z,978.029
2022-08-19T01:16:50.666Z,978.073
2022-08-19T01:18:50.586Z,978.095
2022-08-19T01:20:50.692Z,978.076
2022-08-19T01:22:50.454Z,978.059
2022-08-19T01:24:52.078Z,978.081
2022-08-19T01:26:50.807Z,978.120
2022-08-19T01:28:52.400Z,978.130
2022-08-19T01:30:51.474Z,978.149
2022-08-19T01:32:50.374Z,978.174
2022-08-19T01:34:54.129Z,978.156
2022-08-19T01:36:50.453Z,978.256
2022-08-19T01:38:50.605Z,978.189
2022-08-19T01:40:50.533Z,978.143
2022-08-19T01:42:50.580Z,978.139
2022-08-19T01:44:50.617Z,978.122
2022-08-19T01:46:49.867Z,978.245
2022-08-19T01:48:49.827Z,978.326
2022-08-19T01:50:49.844Z,978.280
2022-08-19T01:53:07.782Z,978.264
2022-08-19T01:54:50.438Z,978.307
2022-08-19T01:56:51.384Z,978.292
2022-08-19T01:58:50.511Z,978.354
2022-08-19T02:00:50.574Z,978.361
2022-08-19T02:02:50.526Z,978.415
2022-08-19T02:04:50.033Z,978.450
2022-08-19T02:06:50.287Z,978.415
2022-08-19T02:08:57.747Z,978.429
2022-08-19T02:10:49.902Z,978.308
2022-08-19T02:12:50.771Z,978.287
2022-08-19T02:14:50.662Z,978.234
2022-08-19T02:16:49.958Z,978.231
2022-08-19T02:18:50.073Z,978.175
2022-08-19T02:20:50.002Z,978.176
2022-08-19T02:22:50.104Z,978.274
2022-08-19T02:24:50.021Z,978.430
2022-08-19T02:26:50.046Z,978.501
2022-08-19T02:28:50.023Z,978.550
2022-08-19T02:30:50.105Z,978.609
2022-08-19T02:32:50.116Z,978.655
2022-08-19T02:34:50.647Z,978.668
2022-08-19T02:36:52.688Z,978.726
2022-08-19T02:38:55.788Z,978.656
2022-08-19T02:40:49.961Z,978.689
2022-08-19T02:42:49.880Z,978.688
2022-08-19T02:44:49.904Z,978.656
2022-08-19T02:46:52.927Z,978.677
2022-08-19T02:48:49.940Z,978.683
2022-08-19T02:50:54.001Z,978.737
2022-08-19T02:52:49.919Z,978.804
2022-08-19T02:54:49.822Z,978.837
2022-08-19T02:56:50.095Z,978.862
2022-08-19T02:58:52.870Z,978.810
2022-08-19T03:00:49.948Z,978.889
2022-08-19T03:02:50.075Z,978.844
2022-08-19T03:04:50.548Z,978.824
2022-08-19T03:06:50.661Z,978.826
2022-08-19T03:08:50.509Z,978.858
2022-08-19T03:10:50.477Z,978.877
2022-08-19T03:12:50.283Z,978.935
2022-08-19T03:14:50.305Z,978.843
2022-08-19T03:16:50.616Z,978.804
2022-08-19T03:18:50.823Z,978.687
2022-08-19T03:20:49.877Z,978.596
2022-08-19T03:22:49.805Z,978.600
2022-08-19T03:24:50.774Z,978.562
2022-08-19T03:26:50.035Z,978.569
2022-08-19T03:28:58.994Z,978.595
2022-08-19T03:30:50.768Z,978.557
2022-08-19T03:32:57.766Z,978.557
2022-08-19T03:34:50.280Z,978.483
2022-08-19T03:36:50.734Z,978.442
2022-08-19T03:39:00.091Z,978.441
2022-08-19T03:40:50.140Z,978.441
2022-08-19T03:42:50.206Z,978.348
2022-08-19T03:44:50.135Z,978.319
2022-08-19T03:46:50.621Z,978.352
2022-08-19T03:48:50.423Z,978.328
2022-08-19T03:50:50.324Z,978.367
2022-08-19T03:52:50.303Z,978.258
2022-08-19T03:54:50.370Z,978.285
2022-08-19T03:56:50.650Z,978.306
2022-08-19T03:58:50.589Z,978.284
2022-08-19T04:00:50.760Z,978.318
2022-08-19T04:03:01.114Z,978.282
2022-08-19T04:04:49.803Z,978.269
2022-08-19T04:06:50.143Z,978.256
2022-08-19T04:08:50.107Z,978.261
2022-08-19T04:10:50.090Z,978.225
2022-08-19T04:12:51.736Z,978.234
2022-08-19T04:14:50.231Z,978.139
2022-08-19T04:16:50.389Z,978.178
2022-08-19T04:18:50.471Z,978.158
2022-08-19T04:20:50.572Z,978.168
2022-08-19T04:22:50.112Z,978.264
2022-08-19T04:24:50.060Z,978.328
2022-08-19T04:26:50.503Z,978.414
2022-08-19T04:28:50.367Z,978.451
2022-08-19T04:30:50.406Z,978.513
2022-08-19T04:32:50.310Z,978.502
2022-08-19T04:35:17.776Z,978.587
2022-08-19T04:36:49.944Z,978.617
2022-08-19T04:38:49.878Z,978.632
2022-08-19T04:40:49.884Z,978.589
2022-08-19T04:42:50.701Z,978.702
2022-08-19T04:44:51.885Z,978.731
2022-08-19T04:46:52.279Z,978.793
2022-08-19T04:48:50.484Z,978.822
2022-08-19T04:50:50.455Z,978.822
2022-08-19T04:52:50.496Z,978.845
2022-08-19T04:54:50.342Z,978.905
2022-08-19T04:56:50.454Z,978.978
2022-08-19T04:58:50.386Z,979.019
2022-08-19T05:00:50.593Z,979.098
2022-08-19T05:02:50.012Z,979.105
2022-08-19T05:04:50.541Z,979.110
2022-08-19T05:06:49.954Z,979.071
2022-08-19T05:08:49.867Z,979.043
2022-08-19T05:10:49.915Z,979.090
2022-08-19T05:12:50.011Z,979.102
2022-08-19T05:14:50.087Z,979.074
2022-08-19T05:17:23.970Z,979.147
2022-08-19T05:18:50.419Z,979.192
2022-08-19T05:20:50.064Z,979.219
2022-08-19T05:22:50.355Z,979.289
2022-08-19T05:25:12.901Z,979.312
2022-08-19T05:26:50.130Z,979.347
2022-08-19T05:28:55.075Z,979.375
2022-08-19T05:30:50.250Z,979.399
2022-08-19T05:32:54.837Z,979.440
2022-08-19T05:34:50.592Z,979.474
2022-08-19T05:36:49.948Z,979.515
2022-08-19T05:38:49.890Z,979.504
2022-08-19T05:40:49.914Z,979.466
2022-08-19T05:42:55.728Z,979.446
2022-08-19T05:44:50.619Z,979.428
2022-08-19T05:46:50.777Z,979.365
2022-08-19T05:48:54.839Z,979.351
2022-08-19T05:50:49.981Z,979.376
2022-08-19T05:52:51.038Z,979.389
2022-08-19T05:54:51.824Z,979.413
2022-08-19T05:56:50.287Z,979.415
2022-08-19T05:58:50.264Z,979.388
2022-08-19T06:00:50.827Z,979.405
2022-08-19T06:02:51.062Z,979.380
2022-08-19T06:04:50.092Z,979.431
2022-08-19T06:06:50.246Z,979.398
2022-08-19T06:08:50.476Z,979.366
2022-08-19T06:10:50.553Z,979.335
2022-08-19T06:12:49.844Z,979.326
2022-08-19T06:15:01.922Z,979.316
2022-08-19T06:16:50.628Z,979.300
2022-08-19T06:18:50.769Z,979.289
2022-08-19T06:20:56.546Z,979.272
2022-08-19T06:22:50.816Z,979.331
2022-08-19T06:24:50.676Z,979.333
2022-08-19T06:26:50.514Z,979.384
2022-08-19T06:28:50.558Z,979.407
2022-08-19T06:30:50.711Z,979.361
2022-08-19T06:32:53.162Z,979.379
2022-08-19T06:34:49.863Z,979.400
2022-08-19T06:36:50.106Z,979.346
2022-08-19T06:38:50.073Z,979.368
2022-08-19T06:40:50.273Z,979.354
2022-08-19T06:42:55.866Z,979.430
2022-08-19T06:44:53.884Z,979.348
2022-08-19T06:46:55.349Z,979.368
2022-08-19T06:48:50.422Z,979.351
2022-08-19T06:50:51.079Z,979.363
2022-08-19T06:52:51.315Z,979.380
2022-08-19T06:54:59.838Z,979.412
2022-08-19T06:56:50.310Z,979.450
2022-08-19T06:58:50.080Z,979.439
2022-08-19T07:00:49.989Z,979.486
2022-08-19T07:03:03.252Z,979.502
2022-08-19T07:04:53.154Z,979.465
2022-08-19T07:06:55.631Z,979.567
2022-08-19T07:08:50.788Z,979.666
2022-08-19T07:10:49.794Z,979.680
2022-08-19T07:12:51.179Z,979.725
2022-08-19T07:14:50.556Z,979.776
2022-08-19T07:16:49.865Z,979.829
2022-08-19T07:18:49.959Z,979.829
2022-08-19T07:20:50.606Z,979.845
2022-08-19T07:22:50.636Z,979.811
2022-08-19T07:24:52.094Z,979.711
2022-08-19T07:26:52.254Z,979.697
2022-08-19T07:28:53.287Z,979.697
2022-08-19T07:30:53.221Z,979.803
2022-08-19T07:32:50.826Z,979.836
2022-08-19T07:34:50.606Z,979.859
2022-08-19T07:36:50.109Z,979.874
2022-08-19T07:38:50.076Z,979.874
2022-08-19T07:40:49.982Z,979.865
2022-08-19T07:42:49.798Z,979.883
2022-08-19T07:44:51.393Z,979.866
2022-08-19T07:46:53.598Z,979.867
2022-08-19T07:48:50.614Z,979.917
2022-08-19T07:50:50.516Z,979.937
2022-08-19T07:52:50.928Z,979.940
2022-08-19T07:54:50.757Z,979.944
2022-08-19T07:56:52.778Z,979.968
2022-08-19T07:58:50.928Z,979.887
2022-08-19T08:00:50.076Z,979.936
2022-08-19T08:02:51.638Z,979.978
2022-08-19T08:04:50.360Z,980.051
2022-08-19T08:06:50.582Z,980.043
2022-08-19T08:08:53.064Z,979.990
2022-08-19T08:10:57.439Z,979.989
2022-08-19T08:13:11.117Z,979.954
2022-08-19T08:14:56.261Z,979.915
2022-08-19T08:16:50.523Z,979.927
2022-08-19T08:18:54.155Z,979.900
2022-08-19T08:20:50.065Z,979.865
2022-08-19T08:22:50.315Z,979.796
2022-08-19T08:24:50.609Z,979.763
2022-08-19T08:26:58.042Z,979.777
2022-08-19T08:28:50.103Z,979.813
2022-08-19T08:30:51.123Z,979.804
2022-08-19T08:32:51.250Z,979.859
2022-08-19T08:34:53.042Z,979.808
2022-08-19T08:36:50.505Z,979.820
2022-08-19T08:38:50.640Z,979.808
2022-08-19T08:40:50.605Z,979.764
2022-08-19T08:42:50.685Z,979.753
2022-08-19T08:46:53.141Z,979.616
2022-08-19T08:48:53.100Z,979.609
2022-08-19T08:50:50.585Z,979.518
2022-08-19T08:52:52.501Z,979.557
2022-08-19T08:54:56.087Z,979.618
2022-08-19T08:56:51.873Z,979.691
2022-08-19T08:58:55.081Z,979.733
2022-08-19T09:00:50.170Z,979.770
2022-08-19T09:02:51.845Z,979.823
2022-08-19T09:04:51.140Z,979.845
2022-08-19T09:06:50.781Z,979.884
2022-08-19T09:08:57.030Z,979.888
2022-08-19T09:10:55.862Z,979.857
2022-08-19T09:12:50.020Z,979.876
2022-08-19T09:14:52.523Z,979.880
2022-08-19T09:16:50.780Z,979.869
2022-08-19T09:18:50.718Z,979.853
2022-08-19T09:20:50.697Z,979.809
2022-08-19T09:22:50.674Z,979.826
2022-08-19T09:24:50.786Z,979.870
2022-08-19T09:26:53.284Z,979.905
2022-08-19T09:28:50.251Z,979.914
2022-08-19T09:30:53.346Z,979.876
2022-08-19T09:32:53.340Z,979.863
2022-08-19T09:34:51.798Z,979.877
2022-08-19T09:36:52.144Z,979.868
2022-08-19T09:38:50.179Z,979.850
2022-08-19T09:40:51.270Z,979.887
2022-08-19T09:42:52.981Z,979.891
2022-08-19T09:44:49.934Z,979.917
2022-08-19T09:46:50.259Z,979.924
2022-08-19T09:48:50.191Z,979.945
2022-08-19T09:50:52.468Z,979.992
2022-08-19T09:52:58.106Z,979.933
2022-08-19T09:54:52.305Z,979.965
2022-08-19T09:56:50.457Z,979.889
2022-08-19T09:58:50.587Z,979.866
2022-08-19T10:00:52.059Z,979.833
2022-08-19T10:02:53.499Z,979.786
2022-08-19T10:04:50.687Z,979.807
2022-08-19T10:06:55.628Z,979.792
2022-08-19T10:08:50.997Z,979.794
2022-08-19T10:10:50.394Z,979.794
2022-08-19T10:12:50.285Z,979.881
2022-08-19T10:14:50.332Z,979.897
2022-08-19T10:16:50.769Z,979.907
2022-08-19T10:18:59.585Z,979.951
2022-08-19T10:20:52.991Z,979.949
2022-08-19T10:22:53.563Z,979.956
2022-08-19T10:24:50.781Z,979.956
2022-08-19T10:27:00.201Z,979.956
2022-08-19T10:28:50.270Z,979.943
2022-08-19T10:30:50.520Z,979.969
2022-08-19T10:32:50.530Z,980.028
2022-08-19T10:34:57.561Z,980.052
2022-08-19T10:37:02.005Z,980.037
2022-08-19T10:38:57.079Z,980.053
2022-08-19T10:40:50.511Z,980.053
2022-08-19T10:42:50.369Z,980.042
2022-08-19T10:44:52.412Z,980.012
2022-08-19T10:46:50.653Z,979.984
2022-08-19T10:48:50.480Z,979.973
2022-08-19T10:50:50.494Z,979.992
2022-08-19T10:52:51.098Z,979.994
2022-08-19T10:54:49.969Z,980.056
2022-08-19T10:56:50.451Z,980.027
2022-08-19T10:58:50.555Z,980.029
2022-08-19T11:00:50.619Z,980.010
2022-08-19T11:02:50.550Z,980.012
2022-08-19T11:04:52.028Z,979.990
2022-08-19T11:06:50.416Z,979.965
2022-08-19T11:08:50.334Z,979.927
2022-08-19T11:10:50.830Z,979.944
2022-08-19T11:12:49.881Z,980.010
2022-08-19T11:14:49.991Z,979.977
2022-08-19T11:16:50.261Z,980.014
2022-08-19T11:18:50.253Z,979.975
2022-08-19T11:20:50.416Z,979.982
2022-08-19T11:22:50.399Z,979.982
2022-08-19T11:24:50.361Z,980.010
2022-08-19T11:26:50.744Z,979.972
2022-08-19T11:28:49.816Z,980.016
2022-08-19T11:30:50.775Z,980.002
2022-08-19T11:32:50.054Z,980.003
2022-08-19T11:34:50.574Z,979.952
2022-08-19T11:36:49.939Z,979.935
2022-08-19T11:38:50.762Z,979.980
2022-08-19T11:40:49.815Z,979.960
2022-08-19T11:42:50.708Z,979.945
2022-08-19T11:44:50.065Z,979.935
2022-08-19T11:46:50.359Z,979.963
2022-08-19T11:48:50.286Z,979.924
2022-08-19T11:50:50.116Z,979.924
2022-08-19T11:52:50.160Z,979.882
2022-08-19T11:54:50.079Z,979.890
2022-08-19T11:56:50.398Z,979.881
2022-08-19T11:58:50.768Z,979.888
2022-08-19T12:00:50.719Z,979.873
2022-08-19T12:02:50.716Z,979.940
2022-08-19T12:04:50.028Z,979.952
2022-08-19T12:06:50.364Z,979.914
2022-08-19T12:08:50.303Z,979.863
2022-08-19T12:10:50.306Z,979.845
2022-08-19T12:12:59.303Z,979.832
2022-08-19T12:14:50.322Z,979.874
2022-08-19T12:16:52.867Z,979.874
2022-08-19T12:18:49.819Z,979.917
2022-08-19T12:20:49.916Z,979.918
2022-08-19T12:22:50.666Z,979.931
2022-08-19T12:24:50.667Z,979.932
2022-08-19T12:26:54.295Z,979.928
2022-08-19T12:28:50.029Z,979.955
2022-08-19T12:30:50.099Z,979.949
2022-08-19T12:32:50.096Z,979.951
2022-08-19T12:34:50.480Z,979.958
2022-08-19T12:36:50.994Z,979.938
2022-08-19T12:38:50.134Z,979.954
2022-08-19T12:40:50.091Z,979.948
2022-08-19T12:42:50.342Z,979.918
2022-08-19T12:44:50.935Z,979.930
2022-08-19T12:46:54.090Z,979.917
2022-08-19T12:48:56.345Z,979.885
2022-08-19T12:50:50.507Z,979.942
2022-08-19T12:52:50.453Z,979.846
2022-08-19T12:54:55.212Z,979.831
2022-08-19T12:56:50.717Z,979.871
2022-08-19T12:58:53.255Z,979.875
2022-08-19T13:00:50.657Z,979.913
2022-08-19T13:02:50.738Z,979.911
2022-08-19T13:04:50.188Z,979.912
2022-08-19T13:06:50.614Z,979.928
2022-08-19T13:08:50.493Z,980.000
2022-08-19T13:10:50.407Z,980.003
2022-08-19T13:12:50.403Z,980.002
2022-08-19T13:14:51.439Z,980.002
2022-08-19T13:16:49.820Z,980.029
2022-08-19T13:18:49.823Z,980.004
2022-08-19T13:20:53.371Z,980.019
2022-08-19T13:22:50.304Z,980.064
2022-08-19T13:24:50.355Z,980.097
2022-08-19T13:26:49.959Z,980.092
2022-08-19T13:28:50.781Z,980.103
2022-08-19T13:30:50.657Z,980.017
2022-08-19T13:32:50.789Z,980.024
2022-08-19T13:34:50.201Z,980.063
2022-08-19T13:36:50.552Z,980.050
2022-08-19T13:38:50.545Z,980.068
2022-08-19T13:40:50.542Z,980.044
2022-08-19T13:42:50.506Z,980.066
2022-08-19T13:44:50.682Z,980.046
2022-08-19T13:46:54.581Z,980.133
2022-08-19T13:48:50.567Z,980.183
2022-08-19T13:50:50.452Z,980.145
2022-08-19T13:52:50.255Z,980.159
2022-08-19T13:54:50.219Z,980.113
2022-08-19T13:56:50.409Z,980.103
2022-08-19T13:58:50.329Z,980.131
2022-08-19T14:00:50.347Z,980.137
2022-08-19T14:02:50.546Z,980.143
2022-08-19T14:04:49.955Z,980.202
2022-08-19T14:06:50.157Z,980.137
2022-08-19T14:08:50.109Z,980.169
2022-08-19T14:10:50.417Z,980.179
2022-08-19T14:12:50.572Z,980.214
2022-08-19T14:14:50.496Z,980.154
2022-08-19T14:16:49.930Z,980.138
2022-08-19T14:18:49.933Z,980.180
2022-08-19T14:20:49.941Z,980.198
2022-08-19T14:22:50.012Z,980.190
2022-08-19T14:24:50.050Z,980.196
2022-08-19T14:26:50.729Z,980.274
2022-08-19T14:28:50.742Z,980.225
2022-08-19T14:30:56.860Z,980.220
2022-08-19T14:32:49.975Z,980.262
2022-08-19T14:34:50.477Z,980.183
2022-08-19T14:36:50.743Z,980.253
2022-08-19T14:38:50.654Z,980.242
2022-08-19T14:40:50.499Z,980.216
2022-08-19T14:42:50.407Z,980.216
2022-08-19T14:44:50.496Z,980.261
2022-08-19T14:46:54.668Z,980.224
2022-08-19T14:48:52.920Z,980.215
2022-08-19T14:50:49.803Z,980.191
2022-08-19T14:52:49.987Z,980.188
2022-08-19T14:54:51.618Z,980.139
2022-08-19T14:56:50.260Z,980.175
2022-08-19T14:58:50.353Z,980.163
2022-08-19T15:00:50.319Z,980.168
2022-08-19T15:02:50.541Z,980.206
2022-08-19T15:05:00.746Z,980.172
2022-08-19T15:06:50.162Z,980.310
2022-08-19T15:08:50.049Z,980.237
2022-08-19T15:10:49.980Z,980.239
2022-08-19T15:12:52.175Z,980.273
2022-08-19T15:14:57.173Z,980.293
2022-08-19T15:16:50.460Z,980.313
2022-08-19T15:18:50.379Z,980.278
2022-08-19T15:20:50.395Z,980.300
2022-08-19T15:22:50.552Z,980.269
2022-08-19T15:24:50.448Z,980.331
2022-08-19T15:26:49.833Z,980.425
2022-08-19T15:28:50.705Z,980.425
2022-08-19T15:30:50.727Z,980.504
2022-08-19T15:32:50.595Z,980.532
2022-08-19T15:34:50.118Z,980.552
2022-08-19T15:36:50.481Z,980.567
2022-08-19T15:38:50.657Z,980.564
2022-08-19T15:40:50.450Z,980.581
2022-08-19T15:42:50.604Z,980.601
2022-08-19T15:44:50.782Z,980.588
2022-08-19T15:46:50.258Z,980.590
2022-08-19T15:49:00.719Z,980.576
2022-08-19T15:50:50.719Z,980.668
2022-08-19T15:52:50.790Z,980.666
2022-08-19T15:54:50.695Z,980.710
2022-08-19T15:56:58.741Z,980.728
2022-08-19T15:58:50.622Z,980.677
2022-08-19T16:00:53.395Z,980.667
2022-08-19T16:02:54.015Z,980.716
2022-08-19T16:04:50.497Z,980.715
2022-08-19T16:06:50.889Z,980.752
2022-08-19T16:08:49.867Z,980.750
2022-08-19T16:10:50.765Z,980.797
2022-08-19T16:12:49.824Z,980.840
2022-08-19T16:14:50.663Z,980.826
2022-08-19T16:16:49.896Z,980.829
2022-08-19T16:18:50.040Z,980.793
2022-08-19T16:20:49.886Z,980.832
2022-08-19T16:22:49.924Z,980.801
2022-08-19T16:24:49.867Z,980.830
2022-08-19T16:26:50.107Z,980.889
2022-08-19T16:28:51.495Z,980.857
2022-08-19T16:30:51.482Z,980.896
2022-08-19T16:32:50.513Z,980.873
2022-08-19T16:34:49.866Z,980.921
2022-08-19T16:36:50.214Z,980.960
2022-08-19T16:38:50.377Z,980.964
2022-08-19T16:40:50.537Z,980.957
2022-08-19T16:42:50.500Z,981.007
2022-08-19T16:44:50.240Z,981.065
2022-08-19T16:47:00.129Z,981.100
2022-08-19T16:48:49.988Z,981.087
2022-08-19T16:50:50.237Z,981.063
2022-08-19T16:52:50.126Z,981.094
2022-08-19T16:54:50.122Z,981.094
2022-08-19T16:56:50.465Z,981.086
2022-08-19T16:58:50.589Z,981.143
2022-08-19T17:00:50.610Z,981.113
2022-08-19T17:02:50.855Z,981.187
2022-08-19T17:04:59.541Z,981.187
2022-08-19T17:06:49.878Z,981.193
2022-08-19T17:08:50.010Z,981.190
2022-08-19T17:11:18.025Z,981.177
2022-08-19T17:12:50.685Z,981.240
2022-08-19T17:14:50.757Z,981.198
2022-08-19T17:16:49.840Z,981.245
2022-08-19T17:18:49.805Z,981.217
2022-08-19T17:20:56.954Z,981.176
2022-08-19T17:22:50.304Z,981.167
2022-08-19T17:24:50.325Z,981.154
2022-08-19T17:26:50.498Z,981.136
2022-08-19T17:28:50.414Z,981.121
2022-08-19T17:30:50.340Z,981.165
2022-08-19T17:32:50.258Z,981.146
2022-08-19T17:34:50.835Z,981.198
2022-08-19T17:36:50.194Z,981.182
2022-08-19T17:38:50.309Z,981.170
2022-08-19T17:40:51.916Z,981.202
2022-08-19T17:42:49.893Z,981.181
2022-08-19T17:44:51.371Z,981.248
2022-08-19T17:46:50.554Z,981.217
2022-08-19T17:48:53.169Z,981.247
2022-08-19T17:50:50.496Z,981.247
2022-08-19T17:52:50.561Z,981.272
2022-08-19T17:54:50.657Z,981.292
2022-08-19T17:56:49.900Z,981.308
2022-08-19T17:59:01.981Z,981.322
2022-08-19T18:00:54.629Z,981.352
2022-08-19T18:02:51.979Z,981.393
2022-08-19T18:04:50.527Z,981.389
2022-08-19T18:06:55.879Z,981.410
2022-08-19T18:08:50.313Z,981.463
2022-08-19T18:10:50.365Z,981.463
2022-08-19T18:12:50.334Z,981.421
2022-08-19T18:14:50.216Z,981.384
2022-08-19T18:16:51.415Z,981.403
2022-08-19T18:18:50.236Z,981.385
2022-08-19T18:20:50.481Z,981.341
2022-08-19T18:22:50.511Z,981.308
2022-08-19T18:24:50.597Z,981.323
2022-08-19T18:26:50.029Z,981.347
2022-08-19T18:28:50.436Z,981.345
2022-08-19T18:30:50.433Z,981.360
2022-08-19T18:32:50.495Z,981.341
2022-08-19T18:34:50.449Z,981.375
2022-08-19T18:36:54.428Z,981.394
2022-08-19T18:38:51.414Z,981.394
2022-08-19T18:40:50.445Z,981.398
2022-08-19T18:42:49.948Z,981.373
2022-08-19T18:44:50.465Z,981.373
2022-08-19T18:46:49.779Z,981.416
2022-08-19T18:48:49.846Z,981.457
2022-08-19T18:50:49.989Z,981.439
2022-08-19T18:52:50.228Z,981.434
2022-08-19T18:54:50.242Z,981.472
2022-08-19T18:56:51.185Z,981.466
2022-08-19T18:58:50.103Z,981.476
2022-08-19T19:00:50.373Z,981.441
2022-08-19T19:02:50.564Z,981.434
2022-08-19T19:04:50.276Z,981.464
2022-08-19T19:06:50.634Z,981.500
2022-08-19T19:08:49.845Z,981.577
2022-08-19T19:10:51.324Z,981.577
2022-08-19T19:12:50.165Z,981.716
2022-08-19T19:14:50.816Z,981.775
2022-08-19T19:16:50.350Z,981.752
2022-08-19T19:18:50.621Z,981.780
2022-08-19T19:20:50.520Z,981.820
2022-08-19T19:22:56.002Z,981.819
2022-08-19T19:24:50.388Z,981.859
2022-08-19T19:26:50.580Z,981.891
2022-08-19T19:28:50.544Z,981.899
2022-08-19T19:30:50.540Z,981.910
2022-08-19T19:32:50.527Z,981.903
2022-08-19T19:34:49.859Z,981.936
2022-08-19T19:36:50.224Z,981.917
2022-08-19T19:38:50.078Z,981.935
2022-08-19T19:40:50.212Z,981.944
2022-08-19T19:42:50.167Z,982.010
2022-08-19T19:44:50.165Z,982.034
2022-08-19T19:46:50.152Z,982.002
2022-08-19T19:48:49.944Z,982.023
2022-08-19T19:50:56.569Z,982.031
2022-08-19T19:52:50.508Z,982.094
2022-08-19T19:54:50.292Z,982.079
2022-08-19T19:56:50.395Z,982.092
2022-08-19T19:58:50.277Z,982.116
2022-08-19T20:00:50.385Z,982.116
2022-08-19T20:02:51.324Z,982.151
2022-08-19T20:04:50.443Z,982.134
2022-08-19T20:06:50.736Z,982.133
2022-08-19T20:08:50.772Z,982.133
2022-08-19T20:10:50.729Z,982.186
2022-08-19T20:12:50.608Z,982.186
2022-08-19T20:14:50.511Z,982.267
2022-08-19T20:16:50.776Z,982.277
2022-08-19T20:18:55.878Z,982.313
2022-08-19T20:20:50.783Z,982.367
2022-08-19T20:22:50.743Z,982.374
2022-08-19T20:24:49.877Z,982.381
2022-08-19T20:26:53.874Z,982.428
2022-08-19T20:29:11.379Z,982.453
2022-08-19T20:30:50.637Z,982.447
2022-08-19T20:32:50.679Z,982.397
2022-08-19T20:34:50.149Z,982.397
2022-08-19T20:36:50.323Z,982.464
2022-08-19T20:38:50.224Z,982.464
2022-08-19T20:40:50.259Z,982.354
2022-08-19T20:42:50.409Z,982.392
2022-08-19T20:44:50.478Z,982.366
2022-08-19T20:47:01.792Z,982.404
2022-08-19T20:48:49.804Z,982.397
2022-08-19T20:50:50.982Z,982.362
2022-08-19T20:52:53.964Z,982.397
2022-08-19T20:54:49.931Z,982.381
2022-08-19T20:56:50.316Z,982.400
2022-08-19T20:59:00.162Z,982.376
2022-08-19T21:00:50.551Z,982.375
2022-08-19T21:02:50.705Z,982.354
2022-08-19T21:04:50.011Z,982.354
2022-08-19T21:06:50.419Z,982.380
2022-08-19T21:08:52.510Z,982.389
2022-08-19T21:10:50.694Z,982.427
2022-08-19T21:12:50.613Z,982.416
2022-08-19T21:14:52.245Z,982.386
2022-08-19T21:16:50.481Z,982.429
2022-08-19T21:18:50.702Z,982.438
2022-08-19T21:20:50.418Z,982.434
2022-08-19T21:22:50.415Z,982.426
2022-08-19T21:24:50.370Z,982.514
2022-08-19T21:26:51.775Z,982.499
2022-08-19T21:28:50.608Z,982.446
2022-08-19T21:30:50.566Z,982.450
2022-08-19T21:32:53.000Z,982.506
2022-08-19T21:34:50.346Z,982.461
2022-08-19T21:36:50.705Z,982.410
2022-08-19T21:38:50.588Z,982.434
2022-08-19T21:40:50.546Z,982.397
2022-08-19T21:42:50.488Z,982.407
2022-08-19T21:44:50.453Z,982.477
2022-08-19T21:46:51.021Z,982.500
2022-08-19T21:48:49.903Z,982.518
2022-08-19T21:50:49.922Z,982.555
2022-08-19T21:52:49.959Z,982.570
2022-08-19T21:54:50.109Z,982.561
2022-08-19T21:56:50.531Z,982.514
2022-08-19T21:58:50.466Z,982.551
2022-08-19T22:00:50.854Z,982.550
2022-08-19T22:02:50.090Z,982.504
2022-08-19T22:04:50.640Z,982.494
2022-08-19T22:06:49.937Z,982.479
2022-08-19T22:08:49.850Z,982.518
2022-08-19T22:10:52.572Z,982.482
2022-08-19T22:12:52.037Z,982.489
2022-08-19T22:14:49.900Z,982.518
2022-08-19T22:16:50.144Z,982.486
2022-08-19T22:18:49.972Z,982.496
2022-08-19T22:20:50.025Z,982.477
2022-08-19T22:22:50.484Z,982.490
2022-08-19T22:24:50.435Z,982.517
2022-08-19T22:26:50.781Z,982.529
2022-08-19T22:28:50.714Z,982.517
2022-08-19T22:30:51.547Z,982.609
2022-08-19T22:32:56.559Z,982.632
2022-08-19T22:34:50.429Z,982.656
2022-08-19T22:36:50.850Z,982.635
2022-08-19T22:38:49.855Z,982.635
2022-08-19T22:40:49.897Z,982.658
2022-08-19T22:42:50.793Z,982.631
2022-08-19T22:44:49.782Z,982.614
2022-08-19T22:46:49.834Z,982.633
2022-08-19T22:49:01.853Z,982.623
2022-08-19T22:50:50.748Z,982.637
2022-08-19T22:52:52.543Z,982.600
2022-08-19T22:54:50.480Z,982.615
2022-08-19T22:56:49.867Z,982.632
2022-08-19T22:58:50.580Z,982.601
2022-08-19T23:00:50.291Z,982.562
2022-08-19T23:02:52.779Z,982.566
2022-08-19T23:04:50.246Z,982.603
2022-08-19T23:06:50.460Z,982.557
2022-08-19T23:08:50.504Z,982.548
2022-08-19T23:10:50.509Z,982.552
2022-08-19T23:12:54.238Z,982.552
2022-08-19T23:14:50.211Z,982.519
2022-08-19T23:16:55.924Z,982.529
2022-08-19T23:18:56.393Z,982.427
2022-08-19T23:20:50.480Z,982.415
2022-08-19T23:22:50.559Z,982.394
2022-08-19T23:24:56.446Z,982.368
2022-08-19T23:26:50.649Z,982.328
2022-08-19T23:28:50.611Z,982.296
2022-08-19T23:30:50.653Z,982.342
2022-08-19T23:32:50.766Z,982.331
2022-08-19T23:34:50.148Z,982.344
2022-08-19T23:36:50.519Z,982.301
2022-08-19T23:38:50.648Z,982.286
2022-08-19T23:40:50.724Z,982.274
2022-08-19T23:42:50.712Z,982.215
2022-08-19T23:44:53.222Z,982.238
2022-08-19T23:46:56.494Z,982.273
2022-08-19T23:48:50.527Z,982.305
2022-08-19T23:50:50.450Z,982.330
2022-08-19T23:52:50.456Z,982.348
2022-08-19T23:54:50.441Z,982.379
2022-08-19T23:56:50.738Z,982.393
2022-08-19T23:58:49.875Z,982.428
